Time;durP1;ratioP1;P1;durP2;ratioP2;P2;SDS_P1;SDS_P2;PMS_P1;PMS_P2;Temp;Humidity;BMP_temperature;BMP_pressure;BME280_temperature;BME280_humidity;BME280_pressure;Samples;Min_cycle;Max_cycle;Signal;HPM_P1;HPM_P2
2022/06/15 00:01:03;;;;;;;2.72;2.55;;;;;;;17.91;74.09;95902.44;5075845;28;20403;-64
2022/06/15 00:03:33;;;;;;;4.18;2.70;;;;;;;17.86;74.60;95902.97;5077621;28;20033;-64
2022/06/15 00:06:11;;;;;;;2.70;2.50;;;;;;;17.87;73.82;95895.81;5074275;28;20028;-64
2022/06/15 00:08:37;;;;;;;2.90;2.70;;;;;;;17.88;73.39;95892.16;5087210;28;20035;-64
2022/06/15 00:11:11;;;;;;;3.80;2.80;;;;;;;17.83;73.31;95903.34;5077606;28;20149;-64
2022/06/15 00:13:36;;;;;;;3.58;2.67;;;;;;;17.76;74.24;95903.22;5078555;28;20034;-64
2022/06/15 00:16:04;;;;;;;2.80;2.45;;;;;;;17.69;74.95;95897.00;5079641;28;20075;-64
2022/06/15 00:18:30;;;;;;;2.28;2.08;;;;;;;17.65;73.74;95909.03;5085572;28;20028;-64
2022/06/15 00:20:57;;;;;;;2.38;2.22;;;;;;;17.70;73.69;95903.16;5079358;28;20047;-64
2022/06/15 00:23:24;;;;;;;2.83;2.45;;;;;;;17.66;75.88;95910.66;5082193;28;20048;-64
2022/06/15 00:25:53;;;;;;;5.07;2.58;;;;;;;17.60;74.95;95904.22;5081786;28;20781;-64
2022/06/15 00:28:19;;;;;;;2.85;2.65;;;;;;;17.59;75.26;95893.78;5084078;28;20423;-64
2022/06/15 00:30:46;;;;;;;2.45;2.25;;;;;;;17.56;74.81;95892.28;5082235;28;20039;-64
2022/06/15 00:33:12;;;;;;;3.88;2.40;;;;;;;17.63;73.97;95897.72;5073754;28;20021;-64
2022/06/15 00:35:38;;;;;;;3.20;2.28;;;;;;;17.66;74.29;95896.53;5076107;28;20029;-64
2022/06/15 00:38:04;;;;;;;2.30;2.20;;;;;;;17.66;74.59;95900.03;5075205;28;20024;-64
2022/06/15 00:40:29;;;;;;;3.53;2.70;;;;;;;17.64;74.27;95893.22;5081075;28;20044;-64
2022/06/15 00:42:55;;;;;;;4.40;2.33;;;;;;;17.62;74.20;95898.75;5083620;28;20547;-64
2022/06/15 00:45:20;;;;;;;2.72;2.53;;;;;;;17.68;73.19;95900.66;5070718;28;20486;-64
2022/06/15 00:47:46;;;;;;;3.83;2.50;;;;;;;17.76;73.21;95897.09;5079010;28;20025;-64
2022/06/15 00:50:24;;;;;;;2.70;2.50;;;;;;;17.72;72.80;95898.47;5077511;28;20096;-64
2022/06/15 00:53:07;;;;;;;3.25;2.53;;;;;;;17.72;73.87;95901.94;5076051;28;20028;-64
2022/06/15 00:55:34;;;;;;;3.33;2.60;;;;;;;17.68;74.00;95892.69;5073715;28;20580;-64
2022/06/15 00:58:07;;;;;;;2.60;2.40;;;;;;;17.70;74.16;95888.00;5072273;28;20028;-64
2022/06/15 01:00:33;;;;;;;2.88;2.55;;;;;;;17.70;73.90;95890.66;5078792;28;20064;-64
2022/06/15 01:02:58;;;;;;;5.70;2.90;;;;;;;17.72;73.92;95895.81;5082363;28;20028;-64
2022/06/15 01:06:01;;;;;;;2.40;2.20;;;;;;;17.70;73.13;95889.84;5078804;28;20032;-64
2022/06/15 01:08:41;;;;;;;2.85;2.58;;;;;;;17.68;75.18;95890.03;5078157;28;20027;-64
2022/06/15 01:11:24;;;;;;;4.20;2.42;;;;;;;17.68;75.33;95883.84;5073416;28;20033;-64
2022/06/15 01:14:01;;;;;;;2.65;2.40;;;;;;;17.68;74.82;95887.34;5081180;28;20523;-63
2022/06/15 01:16:38;;;;;;;3.22;2.92;;;;;;;17.67;75.90;95893.69;5083007;28;20032;-63
2022/06/15 01:19:39;;;;;;;3.15;2.95;;;;;;;17.58;76.59;95884.94;5083134;28;20032;-64
2022/06/15 01:22:25;;;;;;;2.70;2.60;;;;;;;17.55;75.95;95892.47;5081454;28;20020;-64
2022/06/15 01:25:09;;;;;;;2.85;2.58;;;;;;;17.54;76.06;95896.13;5078327;28;20071;-64
2022/06/15 01:28:06;;;;;;;2.80;2.47;;;;;;;17.50;77.19;95895.69;5080206;28;20059;-64
2022/06/15 01:30:48;;;;;;;2.83;2.35;;;;;;;17.54;76.04;95896.97;5074873;28;20549;-64
2022/06/15 01:33:26;;;;;;;4.30;2.85;;;;;;;17.58;75.84;95898.25;5077201;28;20056;-64
2022/06/15 01:35:59;;;;;;;3.25;2.33;;;;;;;17.55;75.88;95887.13;5076106;28;20059;-64
2022/06/15 01:38:54;;;;;;;9.90;2.67;;;;;;;17.56;75.65;95894.13;5072444;28;20016;-64
2022/06/15 01:41:34;;;;;;;2.97;2.78;;;;;;;17.54;76.54;95896.97;5064046;28;20040;-64
2022/06/15 01:44:08;;;;;;;4.25;2.42;;;;;;;17.53;77.61;95894.47;5082036;28;20028;-64
2022/06/15 01:46:38;;;;;;;3.58;2.35;;;;;;;17.47;77.36;95904.03;5075110;28;20036;-64
2022/06/15 01:49:06;;;;;;;2.97;2.67;;;;;;;17.46;76.41;95903.19;5082822;28;20439;-64
2022/06/15 01:51:38;;;;;;;3.00;2.67;;;;;;;17.47;76.29;95902.19;5079652;28;20062;-64
2022/06/15 01:54:10;;;;;;;2.47;2.20;;;;;;;17.43;76.80;95905.38;5080001;28;20092;-64
2022/06/15 01:56:39;;;;;;;2.67;2.38;;;;;;;17.34;78.03;95912.59;5073610;28;20462;-64
2022/06/15 01:59:20;;;;;;;3.72;2.63;;;;;;;17.33;77.90;95917.09;5073302;28;20016;-64
2022/06/15 02:02:15;;;;;;;2.58;2.35;;;;;;;17.30;78.36;95919.28;5077219;28;20487;-63
2022/06/15 02:05:01;;;;;;;3.67;2.97;;;;;;;17.28;77.81;95921.31;5075306;28;20051;-64
2022/06/15 02:07:38;;;;;;;3.42;2.92;;;;;;;17.31;78.16;95921.78;5077843;28;20051;-64
2022/06/15 02:10:17;;;;;;;2.85;2.63;;;;;;;17.36;77.32;95923.91;5072437;28;20090;-64
2022/06/15 02:12:49;;;;;;;3.00;2.72;;;;;;;17.35;78.04;95916.91;5078624;28;20031;-64
2022/06/15 02:15:17;;;;;;;5.65;2.42;;;;;;;17.26;79.09;95923.31;5075353;28;20024;-64
2022/06/15 02:17:45;;;;;;;3.40;3.10;;;;;;;17.24;79.12;95915.53;5079125;28;20024;-64
2022/06/15 02:20:23;;;;;;;4.95;3.13;;;;;;;17.21;79.04;95912.41;5078922;28;20024;-64
2022/06/15 02:22:53;;;;;;;2.80;2.60;;;;;;;17.23;79.42;95905.06;5081651;28;20575;-64
2022/06/15 02:25:22;;;;;;;6.05;2.97;;;;;;;17.22;79.34;95912.19;5078111;28;20050;-64
2022/06/15 02:27:50;;;;;;;3.03;2.72;;;;;;;17.13;80.11;95907.97;5083482;28;20499;-64
2022/06/15 02:30:22;;;;;;;3.00;2.80;;;;;;;17.06;79.41;95907.84;5071539;28;20021;-64
2022/06/15 02:32:49;;;;;;;2.88;2.67;;;;;;;17.00;80.38;95905.91;5080733;28;20027;-64
2022/06/15 02:35:17;;;;;;;3.00;2.80;;;;;;;16.95;79.91;95906.38;5074876;28;20036;-64
2022/06/15 02:37:43;;;;;;;3.13;2.83;;;;;;;16.88;80.72;95903.59;5083709;28;20036;-64
2022/06/15 02:40:13;;;;;;;7.53;2.78;;;;;;;16.84;80.97;95901.50;5084970;28;20039;-64
2022/06/15 02:42:40;;;;;;;3.33;3.03;;;;;;;16.79;81.92;95899.34;5083025;28;20035;-64
2022/06/15 02:45:11;;;;;;;8.02;2.85;;;;;;;16.81;81.15;95900.00;5070717;28;20040;-64
2022/06/15 02:47:40;;;;;;;3.58;3.00;;;;;;;16.83;80.93;95900.66;5082770;28;20475;-64
2022/06/15 02:50:07;;;;;;;6.07;3.95;;;;;;;16.78;80.98;95894.19;5083173;28;20111;-64
2022/06/15 02:52:40;;;;;;;3.88;3.50;;;;;;;16.68;82.68;95902.38;5084898;28;20080;-64
2022/06/15 02:55:08;;;;;;;4.32;3.15;;;;;;;16.68;82.41;95913.03;5074329;28;20033;-64
2022/06/15 02:58:06;;;;;;;3.92;3.58;;;;;;;16.67;81.91;95895.41;5076783;28;20032;-64
2022/06/15 03:00:32;;;;;;;5.55;3.03;;;;;;;16.69;81.61;95896.06;5073592;28;20103;-64
2022/06/15 03:02:58;;;;;;;3.65;3.20;;;;;;;16.76;80.56;95908.50;5083195;28;20024;-64
2022/06/15 03:05:23;;;;;;;7.53;3.40;;;;;;;16.79;81.70;95902.00;5080948;28;20025;-64
2022/06/15 03:07:48;;;;;;;3.20;3.00;;;;;;;16.79;81.86;95903.81;5089844;28;20078;-64
2022/06/15 03:10:14;;;;;;;4.30;3.05;;;;;;;16.78;82.14;95908.34;5085554;28;20066;-64
2022/06/15 03:12:39;;;;;;;4.30;3.17;;;;;;;16.75;82.99;95901.53;5081130;28;20020;-65
2022/06/15 03:15:05;;;;;;;5.60;3.08;;;;;;;16.74;81.97;95905.19;5086178;28;20024;-64
2022/06/15 03:17:31;;;;;;;4.78;2.90;;;;;;;16.82;81.17;95906.16;5086359;28;20069;-64
2022/06/15 03:19:56;;;;;;;6.38;5.78;;;;;;;16.85;81.68;95906.63;5085130;28;20368;-64
2022/06/15 03:22:22;;;;;;;6.10;3.80;;;;;;;16.85;81.64;95898.63;5090803;28;20054;-64
2022/06/15 03:24:47;;;;;;;7.38;3.30;;;;;;;16.86;81.61;95891.50;5077096;28;20028;-64
2022/06/15 03:27:12;;;;;;;3.10;2.80;;;;;;;16.88;81.46;95890.31;5086386;28;20012;-64
2022/06/15 03:29:38;;;;;;;3.20;3.00;;;;;;;16.89;80.82;95893.81;5059226;28;20028;-64
2022/06/15 03:32:04;;;;;;;3.40;3.13;;;;;;;16.85;81.32;95893.31;5085877;28;20541;-64
2022/06/15 03:34:30;;;;;;;4.13;3.30;;;;;;;16.86;81.39;95884.34;5075287;28;20035;-64
2022/06/15 03:36:55;;;;;;;4.15;3.20;;;;;;;16.89;81.09;95886.63;5082508;28;20071;-64
2022/06/15 03:39:21;;;;;;;3.97;3.00;;;;;;;16.93;81.57;95896.94;5088508;28;20062;-64
2022/06/15 03:41:46;;;;;;;3.40;3.10;;;;;;;17.08;80.56;95897.84;5090603;28;20470;-64
2022/06/15 03:44:11;;;;;;;3.65;3.45;;;;;;;17.01;80.73;95896.91;5092259;28;20494;-65
2022/06/15 03:46:37;;;;;;;5.95;3.58;;;;;;;16.98;81.12;95906.06;5092233;28;20032;-64
2022/06/15 03:49:03;;;;;;;4.43;3.97;;;;;;;16.98;81.20;95911.38;5092203;28;20429;-64
2022/06/15 03:51:28;;;;;;;6.35;3.25;;;;;;;16.97;81.02;95907.03;5092307;28;20169;-64
2022/06/15 03:53:53;;;;;;;4.65;4.25;;;;;;;16.89;81.34;95907.91;5092377;28;20059;-64
2022/06/15 03:56:19;;;;;;;4.07;3.58;;;;;;;16.90;81.42;95909.56;5080833;28;20030;-64
2022/06/15 03:58:46;;;;;;;4.47;4.05;;;;;;;16.95;81.17;95910.88;5092250;28;20069;-64
2022/06/15 04:01:11;;;;;;;4.60;4.20;;;;;;;17.01;81.21;95910.19;5092375;28;20050;-64
2022/06/15 04:03:37;;;;;;;4.75;4.10;;;;;;;17.00;81.24;95916.53;5092153;28;20414;-64
2022/06/15 04:06:02;;;;;;;6.15;4.40;;;;;;;17.00;81.62;95909.38;5092058;28;20477;-64
2022/06/15 04:08:36;;;;;;;4.35;3.38;;;;;;;17.08;80.93;95920.97;5091358;28;20027;-64
2022/06/15 04:14:05;;;;;;;3.53;3.17;;;;;;;17.02;81.90;95920.69;5091597;28;20035;-64
2022/06/15 04:16:31;;;;;;;8.30;3.55;;;;;;;17.01;81.77;95918.19;5092084;28;20024;-64
2022/06/15 04:19:02;;;;;;;3.63;3.33;;;;;;;16.92;82.59;95911.25;5092213;28;20056;-64
2022/06/15 04:21:28;;;;;;;3.35;3.13;;;;;;;16.84;83.08;95912.94;5087805;28;20119;-64
2022/06/15 04:23:53;;;;;;;5.60;3.80;;;;;;;16.88;83.45;95911.56;5091366;28;20513;-64
2022/06/15 04:26:18;;;;;;;4.88;4.38;;;;;;;16.98;82.17;95906.06;5091789;28;20040;-64
2022/06/15 04:28:44;;;;;;;6.53;5.65;;;;;;;17.15;81.57;95905.94;5091851;28;20028;-64
2022/06/15 04:31:09;;;;;;;8.88;6.20;;;;;;;17.21;81.79;95907.88;5091877;28;20107;-64
2022/06/15 04:33:35;;;;;;;8.70;7.80;;;;;;;17.30;81.11;95903.31;5091753;28;20020;-65
2022/06/15 04:36:01;;;;;;;15.07;8.32;;;;;;;17.37;81.11;95904.28;5091947;28;20039;-64
2022/06/15 04:38:26;;;;;;;7.13;6.07;;;;;;;17.43;80.25;95902.72;5091622;28;20016;-64
2022/06/15 04:40:52;;;;;;;6.60;4.88;;;;;;;17.44;80.30;95905.22;5091701;28;20039;-64
2022/06/15 04:43:17;;;;;;;8.60;5.93;;;;;;;17.54;80.16;95909.44;5090907;28;20020;-64
2022/06/15 04:45:43;;;;;;;7.80;6.88;;;;;;;17.63;79.78;95910.19;5080169;28;20036;-64
2022/06/15 04:48:09;;;;;;;12.32;9.30;;;;;;;17.79;78.39;95915.38;5091468;28;20454;-64
2022/06/15 04:50:35;;;;;;;10.70;9.23;;;;;;;17.90;77.04;95914.09;5091282;28;20028;-64
2022/06/15 04:53:01;;;;;;;9.70;6.78;;;;;;;17.92;77.90;95917.41;5091552;28;20506;-64
2022/06/15 04:55:28;;;;;;;7.05;5.30;;;;;;;17.91;79.15;95913.09;5090988;28;20114;-64
2022/06/15 04:57:58;;;;;;;4.30;3.83;;;;;;;17.93;78.03;95908.41;5091683;28;20056;-65
2022/06/15 05:00:27;;;;;;;3.53;3.22;;;;;;;17.90;78.06;95911.44;5091124;28;20471;-65
2022/06/15 05:02:52;;;;;;;5.72;3.47;;;;;;;17.82;78.23;95900.88;5091118;28;20502;-64
2022/06/15 05:05:18;;;;;;;8.38;3.33;;;;;;;17.80;77.72;95900.22;5091238;28;20024;-64
2022/06/15 05:07:45;;;;;;;5.60;3.45;;;;;;;17.86;77.64;95891.50;5090768;28;20020;-64
2022/06/15 05:10:15;;;;;;;6.43;3.45;;;;;;;17.85;77.32;95896.00;5089275;28;20047;-64
2022/06/15 05:12:40;;;;;;;6.70;3.35;;;;;;;17.88;77.51;95894.81;5090990;28;20122;-65
2022/06/15 05:15:06;;;;;;;3.75;3.40;;;;;;;18.00;77.07;95896.00;5089255;28;20118;-64
2022/06/15 05:17:32;;;;;;;3.92;3.22;;;;;;;18.12;78.04;95900.91;5090009;28;20081;-64
2022/06/15 05:19:57;;;;;;;6.03;3.30;;;;;;;18.25;77.68;95900.25;5090445;28;20026;-64
2022/06/15 05:22:22;;;;;;;3.55;3.25;;;;;;;18.42;76.94;95899.03;5084385;28;20024;-64
2022/06/15 05:24:48;;;;;;;4.00;3.03;;;;;;;18.59;75.61;95888.97;5090658;28;20427;-64
2022/06/15 05:27:13;;;;;;;3.55;3.25;;;;;;;18.77;74.98;95882.41;5088018;28;20031;-64
2022/06/15 05:29:39;;;;;;;3.30;3.00;;;;;;;18.90;74.51;95882.56;5090692;28;20036;-64
2022/06/15 05:32:06;;;;;;;4.60;3.13;;;;;;;19.00;73.80;95887.59;5090621;28;20035;-64
2022/06/15 05:34:32;;;;;;;3.42;3.03;;;;;;;19.05;73.69;95887.03;5090541;28;20032;-64
2022/06/15 05:36:57;;;;;;;6.68;3.40;;;;;;;19.07;73.79;95895.66;5090351;28;20036;-64
2022/06/15 05:39:23;;;;;;;4.45;3.95;;;;;;;19.15;74.54;95894.72;5090280;28;20447;-65
2022/06/15 05:41:51;;;;;;;5.55;4.00;;;;;;;19.14;75.71;95893.91;5090428;28;20020;-64
2022/06/15 05:44:31;;;;;;;6.65;4.18;;;;;;;19.28;75.16;95899.34;5090243;28;20032;-62
2022/06/15 05:46:58;;;;;;;8.88;3.78;;;;;;;19.39;75.58;95901.50;5083730;28;20565;-61
2022/06/15 05:49:24;;;;;;;7.95;3.85;;;;;;;19.52;74.32;95898.13;5090139;28;20027;-62
2022/06/15 05:51:50;;;;;;;4.82;3.97;;;;;;;19.66;73.97;95901.72;5090094;28;20582;-61
2022/06/15 05:54:15;;;;;;;5.50;5.00;;;;;;;19.80;73.65;95901.81;5090281;28;20043;-61
2022/06/15 05:56:41;;;;;;;6.95;5.57;;;;;;;19.75;73.13;95911.22;5081867;28;20050;-62
2022/06/15 05:59:06;;;;;;;7.07;4.30;;;;;;;19.72;72.30;95910.81;5087252;28;20024;-62
2022/06/15 06:01:34;;;;;;;4.55;3.63;;;;;;;19.74;72.30;95914.09;5082379;28;20049;-61
2022/06/15 06:04:00;;;;;;;3.00;2.80;;;;;;;19.83;71.20;95914.78;5073479;28;20330;-62
2022/06/15 06:06:27;;;;;;;3.40;2.75;;;;;;;19.93;70.50;95922.47;5083131;28;20067;-62
2022/06/15 06:08:52;;;;;;;3.58;3.28;;;;;;;19.99;70.37;95925.19;5086135;28;20020;-61
2022/06/15 06:11:19;;;;;;;3.22;2.85;;;;;;;20.10;71.30;95923.81;5089678;28;20030;-61
2022/06/15 06:13:45;;;;;;;3.58;2.90;;;;;;;20.28;69.48;95925.13;5089635;28;20020;-61
2022/06/15 06:16:11;;;;;;;7.00;3.10;;;;;;;20.38;68.56;95920.28;5089841;28;20069;-61
2022/06/15 06:18:36;;;;;;;2.92;2.72;;;;;;;20.52;67.86;95917.66;5090071;28;20479;-62
2022/06/15 06:21:03;;;;;;;3.13;2.67;;;;;;;20.63;67.29;95921.59;5089389;28;20405;-63
2022/06/15 06:23:28;;;;;;;2.80;2.60;;;;;;;20.83;67.32;95922.53;5082270;28;20036;-62
2022/06/15 06:25:54;;;;;;;4.20;2.78;;;;;;;21.10;65.72;95911.88;5083215;28;20487;-62
2022/06/15 06:28:35;;;;;;;4.47;2.78;;;;;;;21.22;66.04;95911.28;5060828;28;20039;-64
2022/06/15 06:31:03;;;;;;;6.38;2.85;;;;;;;21.28;66.54;95913.16;5070944;28;20047;-63
2022/06/15 06:33:30;;;;;;;4.65;2.75;;;;;;;21.38;66.10;95913.59;5070985;28;20409;-63
2022/06/15 06:35:58;;;;;;;4.43;2.78;;;;;;;21.57;64.99;95913.81;5084755;28;20127;-67
2022/06/15 06:38:24;;;;;;;9.52;2.60;;;;;;;21.61;62.68;95909.69;5087681;28;20605;-63
2022/06/15 06:40:54;;;;;;;3.42;2.60;;;;;;;21.69;62.92;95920.19;5089572;28;20118;-63
2022/06/15 06:43:20;;;;;;;4.20;2.40;;;;;;;21.94;63.45;95919.56;5089189;28;20024;-63
2022/06/15 06:45:46;;;;;;;2.45;2.33;;;;;;;22.11;63.86;95922.66;5086155;28;20412;-61
2022/06/15 06:48:11;;;;;;;4.80;2.83;;;;;;;22.41;63.16;95937.41;5084743;28;20036;-61
2022/06/15 06:50:39;;;;;;;2.78;2.55;;;;;;;22.77;60.90;95932.56;5083473;28;20017;-61
2022/06/15 06:53:05;;;;;;;2.72;2.53;;;;;;;23.12;59.38;95934.88;5082872;28;20032;-62
2022/06/15 06:55:31;;;;;;;2.60;2.40;;;;;;;23.43;58.02;95942.13;5087548;28;20119;-63
2022/06/15 06:57:58;;;;;;;2.53;2.33;;;;;;;23.66;56.97;95948.78;5089095;28;20506;-63
2022/06/15 07:00:24;;;;;;;4.82;2.50;;;;;;;23.60;57.00;95955.03;5087662;28;20024;-63
2022/06/15 07:02:51;;;;;;;3.30;2.55;;;;;;;23.29;56.51;95945.94;5088579;28;20036;-62
2022/06/15 07:05:16;;;;;;;5.10;2.50;;;;;;;23.01;59.43;95947.94;5087428;28;20036;-62
2022/06/15 07:07:42;;;;;;;3.05;2.75;;;;;;;23.22;59.08;95947.81;5088102;28;20028;-62
2022/06/15 07:10:08;;;;;;;4.88;2.58;;;;;;;23.52;57.68;95953.44;5089074;28;20024;-59
2022/06/15 07:12:33;;;;;;;2.85;2.65;;;;;;;23.61;57.44;95954.00;5089183;28;20085;-59
2022/06/15 07:14:59;;;;;;;3.42;2.63;;;;;;;23.30;59.34;95971.75;5088962;28;20035;-60
2022/06/15 07:17:24;;;;;;;2.30;2.10;;;;;;;22.95;61.85;95972.13;5089179;28;20027;-59
2022/06/15 07:19:50;;;;;;;6.18;2.55;;;;;;;22.69;62.61;95973.91;5089333;28;20467;-60
2022/06/15 07:22:15;;;;;;;4.28;2.50;;;;;;;22.56;64.26;95980.94;5089631;28;20077;-59
2022/06/15 07:24:41;;;;;;;5.97;2.80;;;;;;;22.53;65.48;95989.41;5088894;28;20052;-59
2022/06/15 07:27:06;;;;;;;3.53;2.92;;;;;;;22.60;65.62;95990.19;5089335;28;20044;-60
2022/06/15 07:29:32;;;;;;;3.00;2.75;;;;;;;22.63;63.50;95988.97;5089244;28;20099;-62
2022/06/15 07:31:58;;;;;;;7.85;2.67;;;;;;;22.71;63.99;95996.78;5089303;28;20394;-62
2022/06/15 07:34:23;;;;;;;5.13;3.05;;;;;;;22.78;63.92;95993.28;5089110;28;20024;-62
2022/06/15 07:36:50;;;;;;;5.32;2.85;;;;;;;22.81;63.05;96000.88;5089234;28;20039;-62
2022/06/15 07:39:18;;;;;;;3.60;2.90;;;;;;;22.78;64.13;96001.31;5089370;28;20055;-62
2022/06/15 07:41:43;;;;;;;4.18;2.97;;;;;;;22.75;62.95;95995.31;5089361;28;20502;-62
2022/06/15 07:44:09;;;;;;;7.70;2.92;;;;;;;22.76;63.40;95998.84;5092081;28;20115;-62
2022/06/15 07:46:35;;;;;;;4.32;2.80;;;;;;;22.61;64.19;95999.09;5092959;28;20028;-62
2022/06/15 07:52:04;;;;;;;3.95;3.00;;;;;;;22.64;63.95;95985.25;5000359;28;20033;-62
2022/06/15 07:54:29;;;;;;;3.13;2.83;;;;;;;22.81;62.43;95987.47;5075933;28;20063;-62
2022/06/15 07:56:56;;;;;;;4.65;2.80;;;;;;;22.87;62.96;95978.56;5074407;28;20111;-63
2022/06/15 07:59:23;;;;;;;3.05;2.83;;;;;;;22.93;63.36;95977.69;5092883;28;20028;-62
2022/06/15 08:01:49;;;;;;;5.32;3.03;;;;;;;23.10;62.24;95961.09;5092713;28;20024;-60
2022/06/15 08:04:16;;;;;;;4.35;2.50;;;;;;;23.15;62.18;95959.44;5092838;28;20081;-59
2022/06/15 08:06:44;;;;;;;5.05;2.70;;;;;;;23.00;61.05;95953.50;5092335;28;20051;-59
2022/06/15 08:09:13;;;;;;;2.78;2.58;;;;;;;23.05;61.60;95964.44;5092296;28;20036;-59
2022/06/15 08:11:39;;;;;;;3.38;2.70;;;;;;;23.15;62.79;95972.03;5073993;28;20020;-60
2022/06/15 08:14:05;;;;;;;2.90;2.70;;;;;;;23.02;64.14;95967.53;5092161;28;20445;-59
2022/06/15 08:16:32;;;;;;;8.10;3.30;;;;;;;22.91;64.76;95965.53;5092138;28;20024;-59
2022/06/15 08:19:01;;;;;;;5.10;3.00;;;;;;;22.87;64.09;95971.31;5073895;28;20024;-59
2022/06/15 08:21:31;;;;;;;6.30;3.20;;;;;;;22.82;63.58;95976.50;5091935;28;20027;-60
2022/06/15 08:23:59;;;;;;;3.30;3.00;;;;;;;22.87;62.87;95976.69;5070327;28;20094;-59
2022/06/15 08:26:30;;;;;;;4.10;2.58;;;;;;;22.92;61.35;95970.69;5071683;28;20120;-59
2022/06/15 08:28:58;;;;;;;5.15;2.70;;;;;;;22.94;61.73;95984.72;5071649;28;20020;-59
2022/06/15 08:31:25;;;;;;;3.65;2.90;;;;;;;22.99;62.32;95994.81;5071628;28;20020;-59
2022/06/15 08:33:50;;;;;;;4.85;3.30;;;;;;;23.12;61.29;96002.00;5071925;28;20024;-59
2022/06/15 08:36:16;;;;;;;4.22;2.97;;;;;;;22.81;64.31;96000.88;5071706;28;20035;-59
2022/06/15 08:38:42;;;;;;;10.63;3.60;;;;;;;22.74;63.40;96003.59;5071269;28;20021;-59
2022/06/15 08:41:40;;;;;;;5.13;3.88;;;;;;;22.89;66.38;95993.44;5071620;28;20394;-59
2022/06/15 08:44:36;;;;;;;5.82;3.35;;;;;;;23.37;64.97;95994.03;5071492;28;20030;-59
2022/06/15 08:47:08;;;;;;;5.28;3.65;;;;;;;23.92;62.80;95998.00;5072084;28;20059;-60
2022/06/15 08:49:41;;;;;;;3.75;3.38;;;;;;;24.33;61.45;95993.13;5071166;28;20106;-60
2022/06/15 08:52:19;;;;;;;3.72;3.42;;;;;;;24.72;60.27;95992.94;5071267;28;20032;-60
2022/06/15 08:55:07;;;;;;;4.22;3.67;;;;;;;24.77;60.44;95995.78;5070478;28;20020;-60
2022/06/15 08:57:56;;;;;;;5.10;3.15;;;;;;;24.95;59.26;95991.44;5070937;28;20411;-60
2022/06/15 09:00:29;;;;;;;5.53;3.05;;;;;;;25.31;58.94;95981.63;5071157;28;20049;-60
2022/06/15 09:03:04;;;;;;;5.40;3.17;;;;;;;25.42;57.14;95982.72;5071481;28;20032;-60
2022/06/15 09:05:46;;;;;;;5.95;3.00;;;;;;;25.61;55.75;95972.75;5070821;28;20512;-60
2022/06/15 09:08:36;;;;;;;6.45;2.65;;;;;;;25.89;54.78;95972.13;5071056;28;20360;-60
2022/06/15 09:11:34;;;;;;;3.70;3.00;;;;;;;26.31;54.27;95983.91;5070763;28;20013;-60
2022/06/15 09:14:33;;;;;;;3.35;3.00;;;;;;;26.23;54.41;95987.75;5070523;28;20518;-60
2022/06/15 09:17:13;;;;;;;4.28;3.03;;;;;;;26.06;54.65;95989.47;5070928;28;20051;-60
2022/06/15 09:19:46;;;;;;;2.85;2.65;;;;;;;26.21;53.93;95981.78;5070547;28;20095;-60
2022/06/15 09:22:21;;;;;;;7.35;3.00;;;;;;;26.15;53.57;95972.72;5070636;28;20028;-60
2022/06/15 09:24:49;;;;;;;3.47;3.13;;;;;;;26.05;54.51;95972.47;5090139;28;20147;-60
2022/06/15 09:27:26;;;;;;;3.47;2.85;;;;;;;26.11;53.16;95959.91;5090761;28;20443;-58
2022/06/15 09:30:19;;;;;;;3.50;3.20;;;;;;;26.16;51.62;95960.91;5090874;28;20032;-60
2022/06/15 09:33:00;;;;;;;3.70;3.20;;;;;;;26.02;52.29;95967.53;5090545;28;20399;-60
2022/06/15 09:35:42;;;;;;;4.82;3.00;;;;;;;25.97;53.16;95979.00;5090658;28;20483;-60
2022/06/15 09:38:12;;;;;;;4.72;2.90;;;;;;;26.20;51.03;95988.25;5090750;28;20024;-60
2022/06/15 09:40:41;;;;;;;4.70;3.13;;;;;;;26.16;48.50;95987.00;5090697;28;20058;-60
2022/06/15 09:43:19;;;;;;;4.65;3.13;;;;;;;25.91;47.10;95974.56;5090471;28;20107;-60
2022/06/15 09:45:59;;;;;;;2.85;2.63;;;;;;;25.76;49.71;95974.22;5090454;28;20031;-59
2022/06/15 09:48:49;;;;;;;4.15;3.50;;;;;;;25.63;49.26;95967.94;5090380;28;20136;-59
2022/06/15 09:51:29;;;;;;;3.78;3.03;;;;;;;25.93;49.73;95977.84;5090503;28;20027;-60
2022/06/15 09:54:16;;;;;;;4.53;3.10;;;;;;;26.13;47.22;95982.09;5090461;28;20031;-60
2022/06/15 09:56:41;;;;;;;5.88;3.08;;;;;;;26.17;47.48;95991.38;5090353;28;20031;-59
2022/06/15 09:59:10;;;;;;;3.30;2.65;;;;;;;26.24;48.02;95997.50;5090038;28;20024;-59
2022/06/15 10:01:41;;;;;;;6.78;2.97;;;;;;;26.17;46.65;96012.97;5091271;28;20035;-59
2022/06/15 10:04:13;;;;;;;5.57;3.58;;;;;;;26.16;47.30;96011.28;5092646;28;20106;-60
2022/06/15 10:06:45;;;;;;;3.97;3.15;;;;;;;25.93;47.24;96012.09;5089288;28;20035;-60
2022/06/15 10:09:15;;;;;;;4.38;3.28;;;;;;;25.56;50.72;95991.50;5090376;28;20087;-60
2022/06/15 10:11:51;;;;;;;4.32;3.47;;;;;;;25.60;50.27;95989.97;5090002;28;20020;-60
2022/06/15 10:14:19;;;;;;;6.38;3.35;;;;;;;25.81;50.97;95980.53;5089856;28;20398;-60
2022/06/15 10:17:01;;;;;;;4.38;3.85;;;;;;;26.32;51.09;95977.44;5090085;28;20035;-60
2022/06/15 10:19:30;;;;;;;3.78;3.25;;;;;;;26.64;50.42;95970.81;5090179;28;20024;-59
2022/06/15 10:22:06;;;;;;;3.40;3.10;;;;;;;26.63;47.79;95966.47;5090018;28;20047;-60
2022/06/15 10:24:39;;;;;;;3.75;3.13;;;;;;;26.72;49.51;95956.97;5089962;28;20073;-60
2022/06/15 10:27:22;;;;;;;8.52;3.78;;;;;;;26.97;48.83;95959.41;5089743;28;20398;-59
2022/06/15 10:30:21;;;;;;;3.60;3.20;;;;;;;27.00;49.31;95949.97;5089664;28;20104;-60
2022/06/15 10:33:01;;;;;;;5.00;3.58;;;;;;;26.80;51.14;95966.56;5026235;28;20161;-60
2022/06/15 10:35:31;;;;;;;8.10;2.95;;;;;;;26.70;51.01;95961.78;5070990;28;20028;-60
2022/06/15 10:38:00;;;;;;;3.85;3.10;;;;;;;26.59;51.26;95961.53;5089758;28;20056;-60
2022/06/15 10:40:31;;;;;;;4.07;3.20;;;;;;;26.25;52.97;95955.97;5089570;28;20026;-60
2022/06/15 10:43:27;;;;;;;4.13;3.40;;;;;;;26.32;50.83;95963.94;5089853;28;20521;-60
2022/06/15 10:45:53;;;;;;;3.70;3.20;;;;;;;26.28;52.08;95978.94;5089859;28;20024;-61
2022/06/15 10:48:25;;;;;;;4.32;3.20;;;;;;;26.56;51.70;95967.44;5089832;28;20335;-59
2022/06/15 10:50:53;;;;;;;7.35;3.33;;;;;;;27.44;50.45;95971.06;5089743;28;20020;-60
2022/06/15 10:53:30;;;;;;;3.17;2.97;;;;;;;27.69;49.19;95973.41;5089808;28;20090;-59
2022/06/15 11:04:28;;;;;;;4.22;3.20;;;;;;;28.01;49.52;95963.91;5089528;28;20492;-60
2022/06/15 11:07:02;;;;;;;4.93;3.08;;;;;;;28.22;48.22;95956.97;5089690;28;20034;-60
2022/06/15 11:09:36;;;;;;;;;;;;;;;28.01;48.72;95956.63;5089833;28;20051;-60
2022/06/15 11:12:20;;;;;;;4.10;3.40;;;;;;;27.96;48.58;95956.53;5089741;28;19908;-60
2022/06/15 11:18:01;;;;;;;6.03;3.60;;;;;;;27.79;48.14;95944.91;5071385;28;20565;-60
2022/06/15 11:18:33;;;;;;;7.18;3.53;;;;;;;28.19;48.83;95952.06;5078087;28;20039;-60
2022/06/15 11:21:04;;;;;;;7.20;3.25;;;;;;;28.88;47.82;95950.00;5093066;28;20028;-60
2022/06/15 11:23:39;;;;;;;4.30;3.22;;;;;;;29.82;43.42;95946.34;5092959;28;20130;-60
2022/06/15 11:29:21;;;;;;;3.20;3.00;;;;;;;30.04;43.54;95927.25;5093605;28;20044;-61
2022/06/15 11:31:47;;;;;;;5.35;2.95;;;;;;;30.15;44.66;95930.84;5074767;28;20032;-60
2022/06/15 11:34:20;;;;;;;5.03;3.45;;;;;;;30.16;44.96;95927.91;5093132;28;20031;-60
2022/06/15 11:36:54;;;;;;;2.72;2.53;;;;;;;30.11;44.07;95927.88;5093052;28;20047;-60
2022/06/15 11:39:30;;;;;;;3.17;2.90;;;;;;;29.84;45.03;95923.31;5093086;28;20085;-60
2022/06/15 11:41:57;;;;;;;3.92;2.97;;;;;;;29.71;45.22;95929.16;5092541;28;20039;-60
2022/06/15 11:44:29;;;;;;;5.28;3.30;;;;;;;29.82;45.13;95928.16;5092974;28;20031;-60
2022/06/15 11:47:13;;;;;;;3.13;2.90;;;;;;;30.23;45.47;95922.25;5092772;28;20032;-60
2022/06/15 11:49:57;;;;;;;5.03;3.08;;;;;;;30.72;44.22;95920.34;5093068;28;20034;-60
2022/06/15 11:52:37;;;;;;;7.43;2.78;;;;;;;30.86;43.36;95921.47;5092570;28;20046;-60
2022/06/15 11:55:33;;;;;;;6.30;2.65;;;;;;;31.81;42.08;95912.44;5092369;28;20032;-60
2022/06/15 11:58:25;;;;;;;3.50;3.20;;;;;;;32.52;38.66;95907.94;5092658;28;20034;-60
2022/06/15 12:01:10;;;;;;;7.20;3.17;;;;;;;32.18;39.76;95908.56;5092091;28;20020;-61
2022/06/15 12:03:50;;;;;;;6.45;2.90;;;;;;;31.92;40.63;95915.97;5091639;28;20035;-60
2022/06/15 12:06:52;;;;;;;6.40;2.80;;;;;;;32.21;39.48;95916.19;5092409;28;20129;-61
2022/06/15 12:09:51;;;;;;;5.70;3.35;;;;;;;32.79;36.86;95912.19;5092188;28;20450;-61
2022/06/15 12:12:40;;;;;;;5.32;3.00;;;;;;;33.22;37.91;95921.81;5092318;28;20024;-60